Time;durP1;ratioP1;P1;durP2;ratioP2;P2;SDS_P1;SDS_P2;PMS_P1;PMS_P2;Temp;Humidity;BMP_temperature;BMP_pressure;BME280_temperature;BME280_humidity;BME280_pressure;Samples;Min_cycle;Max_cycle;Signal;HPM_P1;HPM_P2
2022/12/02 00:01:14;;;;;;;81.33;40.27;;;4.50;99.90;;;;;;5003927;28;38504;-79
2022/12/02 00:03:41;;;;;;;75.83;39.30;;;4.50;99.90;;;;;;5012716;28;37889;-82
2022/12/02 00:06:35;;;;;;;87.00;41.33;;;4.60;99.90;;;;;;5027886;28;40138;-81
2022/12/02 00:09:19;;;;;;;89.67;40.07;;;4.60;99.90;;;;;;5010227;28;37670;-82
2022/12/02 00:11:46;;;;;;;82.07;39.47;;;4.70;99.90;;;;;;5010979;28;46948;-79
2022/12/02 00:14:34;;;;;;;86.40;40.53;;;4.70;99.90;;;;;;5024509;28;36575;-79
2022/12/02 00:17:00;;;;;;;85.67;40.90;;;4.70;99.90;;;;;;5007417;28;38981;-82
2022/12/02 00:19:26;;;;;;;78.87;38.57;;;4.70;99.90;;;;;;5012664;28;37403;-79
2022/12/02 00:21:53;;;;;;;84.27;41.07;;;4.80;99.90;;;;;;5012773;28;38819;-79
2022/12/02 00:24:19;;;;;;;90.03;43.20;;;4.80;99.90;;;;;;5019099;28;36876;-79
2022/12/02 00:26:45;;;;;;;90.73;45.17;;;4.80;99.90;;;;;;5008436;28;37833;-79
2022/12/02 00:29:12;;;;;;;97.80;44.63;;;4.80;99.90;;;;;;5021688;28;37511;-82
2022/12/02 00:31:38;;;;;;;98.93;46.10;;;4.90;99.90;;;;;;5007574;28;38419;-79
2022/12/02 00:34:04;;;;;;;106.87;47.27;;;4.90;99.90;;;;;;5022886;28;36106;-79
2022/12/02 00:36:31;;;;;;;106.27;45.43;;;4.90;99.90;;;;;;5012064;28;38574;-79
2022/12/02 00:38:57;;;;;;;101.80;44.37;;;4.90;99.90;;;;;;5009257;28;39933;-81
2022/12/02 00:41:24;;;;;;;104.73;46.27;;;5.00;99.90;;;;;;5008549;28;38313;-82
2022/12/02 00:46:36;;;;;;;126.27;52.13;;;5.00;99.90;;;;;;5015789;28;49310;-82
2022/12/02 00:49:12;;;;;;;92.27;44.33;;;5.00;99.90;;;;;;5004530;28;37273;-80
2022/12/02 00:51:40;;;;;;;98.97;43.70;;;5.10;99.90;;;;;;5008261;28;38195;-82
2022/12/02 00:54:06;;;;;;;102.40;47.87;;;5.10;99.90;;;;;;5009830;28;37226;-82
2022/12/02 00:56:33;;;;;;;110.80;46.73;;;5.10;99.90;;;;;;5012383;28;37538;-82
2022/12/02 00:58:59;;;;;;;110.70;48.93;;;5.10;99.90;;;;;;5010325;28;38505;-82
2022/12/02 01:01:26;;;;;;;107.47;46.23;;;5.10;99.90;;;;;;5008462;28;39109;-82
2022/12/02 01:03:52;;;;;;;109.03;47.87;;;5.10;99.90;;;;;;5009371;28;36263;-82
2022/12/02 01:06:18;;;;;;;103.40;47.03;;;5.20;99.90;;;;;;5020621;28;38292;-82
2022/12/02 01:08:44;;;;;;;102.70;48.50;;;5.20;99.90;;;;;;5019306;28;39076;-82
2022/12/02 01:11:12;;;;;;;109.10;49.80;;;5.20;99.90;;;;;;5009197;28;36967;-81
2022/12/02 01:13:38;;;;;;;100.83;46.50;;;5.20;99.90;;;;;;5010661;28;38061;-82
2022/12/02 01:16:04;;;;;;;110.77;49.23;;;5.20;99.90;;;;;;5027388;28;37387;-81
2022/12/02 01:18:30;;;;;;;107.63;48.57;;;5.20;99.90;;;;;;5006562;28;48113;-82
2022/12/02 01:20:57;;;;;;;105.50;47.73;;;5.20;99.90;;;;;;5005025;28;39063;-81
2022/12/02 01:23:23;;;;;;;116.10;50.20;;;5.20;99.90;;;;;;5006739;28;35994;-81
2022/12/02 01:25:49;;;;;;;108.47;48.70;;;5.20;99.90;;;;;;5008047;28;39355;-81
2022/12/02 01:28:16;;;;;;;111.03;51.70;;;5.20;99.90;;;;;;5009621;28;37113;-82
2022/12/02 01:30:42;;;;;;;107.40;47.93;;;5.20;99.90;;;;;;5007675;28;35431;-82
2022/12/02 01:33:09;;;;;;;102.87;47.47;;;5.20;99.90;;;;;;5005426;28;36387;-82
2022/12/02 01:35:35;;;;;;;106.37;47.23;;;5.20;99.90;;;;;;5011057;28;39482;-81
2022/12/02 01:38:01;;;;;;;101.53;47.23;;;5.20;99.90;;;;;;5021378;28;37498;-81
2022/12/02 01:40:29;;;;;;;102.10;48.63;;;5.20;99.90;;;;;;5008549;28;37875;-82
2022/12/02 01:42:55;;;;;;;108.50;48.63;;;5.20;99.90;;;;;;5013989;28;38415;-82
2022/12/02 01:45:21;;;;;;;99.07;47.07;;;5.30;99.90;;;;;;5014756;28;38716;-82
2022/12/02 01:47:48;;;;;;;100.53;48.60;;;5.30;99.90;;;;;;5006561;28;38794;-82
2022/12/02 01:50:15;;;;;;;97.57;46.67;;;5.30;99.90;;;;;;5013948;28;38447;-82
2022/12/02 01:52:42;;;;;;;117.13;50.50;;;5.30;99.90;;;;;;5018840;28;35448;-82
2022/12/02 01:55:19;;;;;;;109.07;50.30;;;5.30;99.90;;;;;;5035705;28;37965;-81
2022/12/02 01:57:45;;;;;;;108.10;49.63;;;5.30;99.90;;;;;;5017603;28;37860;-82
2022/12/02 02:00:12;;;;;;;127.80;52.67;;;5.40;99.90;;;;;;5018586;28;37423;-79
2022/12/02 02:02:39;;;;;;;107.70;48.33;;;5.40;99.90;;;;;;5484120;22;36188;-75
2022/12/02 02:05:08;;;;;;;106.30;49.87;;;5.30;99.90;;;;;;5009716;28;36693;-76
2022/12/02 02:07:36;;;;;;;105.63;50.03;;;5.40;99.90;;;;;;5018408;28;38513;-75
2022/12/02 02:10:03;;;;;;;114.40;51.97;;;5.40;99.90;;;;;;5013945;28;36839;-75
2022/12/02 02:12:30;;;;;;;102.47;49.40;;;5.30;99.90;;;;;;5015778;28;46950;-74
2022/12/02 02:14:56;;;;;;;105.73;50.60;;;5.30;99.90;;;;;;5015075;28;39738;-74
2022/12/02 02:17:22;;;;;;;115.70;51.33;;;5.20;99.90;;;;;;5018368;28;39176;-75
2022/12/02 02:19:49;;;;;;;105.73;48.37;;;5.20;99.90;;;;;;5017588;28;36857;-75
2022/12/02 02:22:24;;;;;;;108.23;49.80;;;5.20;99.90;;;;;;5016729;28;35994;-75
2022/12/02 02:24:50;;;;;;;105.20;49.33;;;5.20;99.90;;;;;;5019013;28;40011;-75
2022/12/02 02:27:16;;;;;;;99.53;47.60;;;5.20;99.90;;;;;;5019508;28;38490;-75
2022/12/02 02:29:43;;;;;;;105.03;50.90;;;5.20;99.90;;;;;;5007588;28;39046;-75
2022/12/02 02:32:09;;;;;;;108.10;49.73;;;5.10;99.90;;;;;;4999382;28;37581;-75
2022/12/02 02:34:36;;;;;;;116.23;52.80;;;5.10;99.90;;;;;;4999681;28;38008;-75
2022/12/02 02:37:02;;;;;;;112.90;53.10;;;5.10;99.90;;;;;;5023981;28;38408;-75
2022/12/02 02:39:29;;;;;;;124.27;55.00;;;5.20;99.90;;;;;;5003109;28;49310;-75
2022/12/02 02:41:56;;;;;;;122.87;54.87;;;5.20;99.90;;;;;;5023766;28;36081;-75
2022/12/02 02:44:23;;;;;;;110.37;53.53;;;5.20;99.90;;;;;;5013287;28;39597;-75
2022/12/02 02:46:49;;;;;;;118.17;53.30;;;5.20;99.90;;;;;;4999943;28;38870;-75
2022/12/02 02:49:15;;;;;;;118.80;52.90;;;5.20;99.90;;;;;;5002138;28;38267;-75
2022/12/02 02:51:42;;;;;;;120.43;54.33;;;5.20;99.90;;;;;;5009354;28;36228;-75
2022/12/02 02:54:08;;;;;;;122.57;56.10;;;5.20;99.90;;;;;;5002419;28;39783;-75
2022/12/02 02:56:34;;;;;;;123.87;55.37;;;5.20;99.90;;;;;;5012994;28;37285;-76
2022/12/02 02:59:01;;;;;;;122.90;56.27;;;5.20;99.90;;;;;;5006937;28;37903;-75
2022/12/02 03:01:32;;;;;;;132.33;56.63;;;5.10;99.90;;;;;;5007686;28;36262;-76
2022/12/02 03:04:03;;;;;;;111.37;51.40;;;5.10;99.90;;;;;;5005039;28;37792;-75
2022/12/02 03:06:32;;;;;;;121.40;56.23;;;5.10;99.90;;;;;;5008942;28;48059;-75
2022/12/02 03:08:59;;;;;;;117.30;54.40;;;5.10;99.90;;;;;;5007548;28;37503;-76
2022/12/02 03:11:30;;;;;;;125.80;56.60;;;5.10;99.90;;;;;;5006808;28;37743;-76
2022/12/02 03:13:57;;;;;;;124.27;57.83;;;5.10;99.90;;;;;;5008227;28;39518;-75
2022/12/02 03:16:25;;;;;;;134.80;60.00;;;5.10;99.90;;;;;;5006823;28;38518;-76
2022/12/02 03:18:52;;;;;;;133.07;60.07;;;5.10;99.90;;;;;;5008892;28;37977;-74
2022/12/02 03:21:19;;;;;;;132.97;59.67;;;5.10;99.90;;;;;;5011806;28;37425;-74
2022/12/02 03:23:46;;;;;;;134.50;61.53;;;5.10;99.90;;;;;;5003257;28;37994;-75
2022/12/02 03:26:14;;;;;;;134.83;60.07;;;5.10;99.90;;;;;;5021934;28;37840;-75
2022/12/02 03:28:41;;;;;;;125.17;59.47;;;5.10;99.90;;;;;;5006259;28;38137;-74
2022/12/02 03:31:09;;;;;;;113.20;55.23;;;5.20;99.90;;;;;;5006531;28;37518;-75
2022/12/02 03:33:38;;;;;;;133.63;60.13;;;5.20;99.90;;;;;;5008407;28;37629;-75
2022/12/02 03:36:09;;;;;;;136.80;60.17;;;5.20;99.90;;;;;;5001513;28;37381;-76
2022/12/02 03:38:36;;;;;;;121.93;56.83;;;5.10;99.90;;;;;;5008984;28;38746;-74
2022/12/02 03:41:04;;;;;;;133.17;58.43;;;5.10;99.90;;;;;;5006147;28;36404;-75
2022/12/02 03:43:30;;;;;;;135.43;59.20;;;5.10;99.90;;;;;;5010655;28;47549;-76
2022/12/02 03:45:57;;;;;;;134.73;59.33;;;5.00;99.90;;;;;;5016971;28;38505;-75
2022/12/02 03:48:25;;;;;;;134.33;56.20;;;5.00;99.90;;;;;;5007292;28;38835;-75
2022/12/02 03:50:52;;;;;;;121.53;56.13;;;5.00;99.90;;;;;;5008376;28;36671;-75
2022/12/02 03:53:20;;;;;;;137.17;59.03;;;5.00;99.90;;;;;;5021479;28;39358;-75
2022/12/02 03:55:47;;;;;;;127.50;57.37;;;5.00;99.90;;;;;;5006791;28;38359;-75
2022/12/02 03:58:14;;;;;;;123.27;54.80;;;4.90;99.90;;;;;;5002498;28;38587;-75
2022/12/02 04:00:40;;;;;;;121.73;54.50;;;5.00;99.90;;;;;;5006416;28;36147;-75
2022/12/02 04:03:06;;;;;;;115.20;52.63;;;4.90;99.90;;;;;;5001329;28;39442;-75
2022/12/02 04:05:32;;;;;;;121.13;55.33;;;4.90;99.90;;;;;;5003685;28;38770;-75
2022/12/02 04:07:58;;;;;;;126.87;55.67;;;4.90;99.90;;;;;;5004937;28;36729;-75
2022/12/02 04:10:25;;;;;;;130.53;55.80;;;4.90;99.90;;;;;;5002108;28;37703;-76
2022/12/02 04:12:51;;;;;;;125.90;54.30;;;4.90;99.90;;;;;;5003437;28;39399;-75
2022/12/02 04:15:19;;;;;;;129.13;54.30;;;4.90;99.90;;;;;;4999163;28;38371;-75
2022/12/02 04:17:45;;;;;;;114.53;53.83;;;4.90;99.90;;;;;;5000171;28;37124;-75
2022/12/02 04:20:11;;;;;;;117.07;53.83;;;4.90;99.90;;;;;;4999020;28;36014;-75
2022/12/02 04:22:37;;;;;;;121.07;52.07;;;4.90;99.90;;;;;;5018448;28;38352;-75
2022/12/02 04:25:04;;;;;;;117.67;50.97;;;4.90;99.90;;;;;;5002457;28;39971;-76
2022/12/02 04:27:30;;;;;;;116.10;53.50;;;4.90;99.90;;;;;;5002430;28;38058;-75
2022/12/02 04:29:56;;;;;;;121.47;52.47;;;5.00;99.90;;;;;;5004274;28;38715;-76
2022/12/02 04:32:22;;;;;;;114.47;50.87;;;5.00;99.90;;;;;;5007090;28;37596;-76
2022/12/02 04:34:48;;;;;;;107.23;49.30;;;5.00;99.90;;;;;;5009872;28;38373;-76
2022/12/02 04:37:14;;;;;;;119.07;50.10;;;5.00;99.90;;;;;;5010785;28;38584;-76
2022/12/02 04:39:40;;;;;;;119.43;49.87;;;5.00;99.90;;;;;;5005469;28;36419;-76
2022/12/02 04:42:06;;;;;;;114.33;49.20;;;5.10;99.90;;;;;;5015432;28;38547;-75
2022/12/02 04:44:32;;;;;;;115.07;50.50;;;5.00;99.90;;;;;;5024550;28;37761;-75
2022/12/02 04:46:58;;;;;;;119.03;48.73;;;5.10;99.90;;;;;;5013775;28;36940;-75
2022/12/02 04:49:28;;;;;;;111.93;50.20;;;5.10;99.90;;;;;;5012947;28;37994;-75
2022/12/02 04:51:54;;;;;;;113.00;50.67;;;5.00;99.90;;;;;;5012861;28;38959;-75
2022/12/02 04:54:20;;;;;;;115.50;47.10;;;5.00;99.90;;;;;;5003173;28;38675;-76
2022/12/02 04:56:46;;;;;;;110.70;49.17;;;5.00;99.90;;;;;;5004669;28;38984;-76
2022/12/02 04:59:12;;;;;;;113.20;49.10;;;5.00;99.90;;;;;;5007452;28;37324;-75
2022/12/02 05:01:38;;;;;;;118.87;50.67;;;5.00;99.90;;;;;;5008917;28;37340;-76
2022/12/02 05:04:04;;;;;;;112.43;49.33;;;5.00;99.90;;;;;;5003093;28;38096;-76
2022/12/02 05:06:31;;;;;;;112.93;50.07;;;5.00;99.90;;;;;;5001044;28;37540;-76
2022/12/02 05:08:57;;;;;;;116.63;51.13;;;5.00;99.90;;;;;;5005234;28;36062;-76
2022/12/02 05:11:23;;;;;;;118.07;50.37;;;5.00;99.90;;;;;;5009380;28;39417;-75
2022/12/02 05:13:49;;;;;;;117.90;48.33;;;5.10;99.90;;;;;;5004360;28;38744;-76
2022/12/02 05:16:16;;;;;;;116.07;50.53;;;5.00;99.90;;;;;;5008850;28;38277;-76
2022/12/02 05:18:42;;;;;;;121.53;50.33;;;5.10;99.90;;;;;;5005253;28;36517;-76
2022/12/02 05:21:08;;;;;;;107.00;47.97;;;5.10;99.90;;;;;;5010806;28;38709;-77
2022/12/02 05:23:34;;;;;;;115.30;49.40;;;5.00;99.90;;;;;;5007745;28;39963;-76
2022/12/02 05:26:00;;;;;;;122.93;49.23;;;5.00;99.90;;;;;;5011329;28;38613;-76
2022/12/02 05:28:26;;;;;;;119.70;50.57;;;5.10;99.90;;;;;;5011108;28;35874;-76
2022/12/02 05:30:52;;;;;;;106.50;48.70;;;5.00;99.90;;;;;;5005202;28;38877;-76
2022/12/02 05:33:18;;;;;;;112.87;49.27;;;5.00;99.90;;;;;;5003987;28;37892;-76
2022/12/02 05:35:44;;;;;;;120.13;51.53;;;5.00;99.90;;;;;;5003844;28;38303;-76
2022/12/02 05:38:10;;;;;;;117.87;50.00;;;5.00;99.90;;;;;;5006704;28;37266;-76
2022/12/02 05:40:37;;;;;;;109.70;48.93;;;5.00;99.90;;;;;;5014031;28;37658;-76
2022/12/02 05:43:18;;;;;;;114.70;49.37;;;5.00;99.90;;;;;;5008325;28;37064;-77
2022/12/02 05:45:45;;;;;;;115.30;49.23;;;5.00;99.90;;;;;;5009192;28;38573;-76
2022/12/02 05:48:16;;;;;;;116.77;48.50;;;5.00;99.90;;;;;;5010493;28;37597;-77
2022/12/02 05:50:43;;;;;;;111.30;47.43;;;5.10;99.90;;;;;;5013478;28;39616;-77
2022/12/02 05:53:30;;;;;;;108.97;47.53;;;5.00;99.90;;;;;;5010418;28;37411;-76
2022/12/02 05:55:56;;;;;;;115.87;47.33;;;5.00;99.90;;;;;;5001122;28;38037;-77
2022/12/02 05:58:23;;;;;;;111.27;48.10;;;4.90;99.90;;;;;;5003942;28;37613;-75
2022/12/02 06:00:55;;;;;;;109.60;48.50;;;4.90;99.90;;;;;;5006031;28;37976;-75
2022/12/02 06:03:21;;;;;;;112.63;48.17;;;4.90;99.90;;;;;;4999865;28;37962;-76
2022/12/02 06:05:49;;;;;;;114.37;48.00;;;4.90;99.90;;;;;;5008577;28;38272;-76
2022/12/02 06:08:24;;;;;;;108.33;46.80;;;4.90;99.90;;;;;;5010940;28;37175;-76
2022/12/02 06:11:02;;;;;;;114.40;48.20;;;4.90;99.90;;;;;;5006694;28;37462;-76
2022/12/02 06:13:34;;;;;;;120.57;50.80;;;4.90;99.90;;;;;;5004897;28;38019;-76
2022/12/02 06:16:02;;;;;;;116.93;47.83;;;4.90;99.90;;;;;;5011599;28;39602;-77
2022/12/02 06:18:33;;;;;;;114.70;45.97;;;4.90;99.90;;;;;;5015322;28;37625;-75
2022/12/02 06:21:10;;;;;;;102.13;44.63;;;4.80;99.90;;;;;;5009539;28;38032;-75
2022/12/02 06:23:43;;;;;;;112.77;46.03;;;4.90;99.90;;;;;;5004283;28;45441;-76
2022/12/02 06:26:12;;;;;;;101.80;44.27;;;4.90;99.90;;;;;;5005050;28;38607;-76
2022/12/02 06:28:43;;;;;;;99.67;43.83;;;4.90;99.90;;;;;;5006600;28;37025;-75
2022/12/02 06:31:15;;;;;;;103.80;44.37;;;4.90;99.90;;;;;;5002360;28;38187;-75
2022/12/02 06:33:43;;;;;;;100.03;46.33;;;4.90;99.90;;;;;;5021330;28;37678;-76
2022/12/02 06:36:17;;;;;;;100.73;45.73;;;4.90;99.90;;;;;;5010856;28;38457;-76
2022/12/02 06:38:58;;;;;;;112.20;45.60;;;4.90;99.90;;;;;;5004563;28;36073;-74
2022/12/02 06:41:27;;;;;;;99.73;44.03;;;4.90;99.90;;;;;;5007908;28;38975;-77
2022/12/02 06:46:53;;;;;;;104.20;44.10;;;4.90;99.90;;;;;;5003721;28;49496;-74
2022/12/02 06:49:30;;;;;;;107.30;47.47;;;4.90;99.90;;;;;;5010441;28;38243;-74
2022/12/02 06:51:59;;;;;;;103.70;45.60;;;4.90;99.90;;;;;;5022272;28;37959;-74
2022/12/02 06:54:29;;;;;;;104.33;44.77;;;4.90;99.90;;;;;;5011130;28;37819;-74
2022/12/02 06:56:57;;;;;;;101.83;45.27;;;4.80;99.90;;;;;;5013401;28;38670;-74
2022/12/02 06:59:24;;;;;;;105.13;44.17;;;4.80;99.90;;;;;;5016809;28;38661;-74
2022/12/02 07:01:56;;;;;;;106.50;46.40;;;4.90;99.90;;;;;;5009224;28;38961;-74
2022/12/02 07:04:46;;;;;;;103.27;45.43;;;4.80;99.90;;;;;;5011008;28;38562;-74
2022/12/02 07:07:29;;;;;;;100.57;45.03;;;4.80;99.90;;;;;;5021742;28;37093;-75
2022/12/02 07:10:06;;;;;;;104.70;42.60;;;4.80;99.90;;;;;;5025159;28;37595;-74
2022/12/02 07:12:42;;;;;;;86.30;39.17;;;4.80;99.90;;;;;;5006866;28;47507;-74
2022/12/02 07:15:08;;;;;;;92.87;38.33;;;4.80;99.90;;;;;;5007961;28;37941;-75
2022/12/02 07:17:37;;;;;;;90.37;39.53;;;4.80;99.90;;;;;;5018729;28;39360;-74
2022/12/02 07:20:07;;;;;;;86.07;37.53;;;4.90;99.90;;;;;;5007008;28;36710;-74
2022/12/02 07:22:43;;;;;;;86.73;34.77;;;4.90;99.90;;;;;;5006527;28;38709;-74
2022/12/02 07:25:09;;;;;;;86.47;37.03;;;4.80;99.90;;;;;;5015121;28;39948;-74
2022/12/02 07:27:39;;;;;;;76.73;35.00;;;4.80;99.90;;;;;;5010855;28;38106;-73
2022/12/02 07:30:33;;;;;;;85.03;36.53;;;4.80;99.90;;;;;;5013374;28;38191;-73
2022/12/02 07:33:00;;;;;;;87.00;35.37;;;4.80;99.90;;;;;;5015499;28;38811;-74
2022/12/02 07:35:27;;;;;;;83.47;34.93;;;4.80;99.90;;;;;;5007353;28;37329;-73
2022/12/02 07:37:53;;;;;;;89.47;36.30;;;4.80;99.90;;;;;;5013711;28;37460;-74
2022/12/02 07:40:20;;;;;;;79.50;35.30;;;4.70;99.90;;;;;;5014950;28;36811;-75
2022/12/02 07:42:47;;;;;;;84.07;34.93;;;4.70;99.90;;;;;;5007940;28;39077;-74
2022/12/02 07:45:14;;;;;;;92.27;36.00;;;4.80;99.90;;;;;;5020736;28;38371;-74
2022/12/02 07:47:41;;;;;;;93.60;35.93;;;4.70;99.90;;;;;;5034495;28;37191;-74
2022/12/02 07:50:07;;;;;;;96.40;36.73;;;4.60;99.90;;;;;;5011040;28;36239;-74
2022/12/02 07:52:34;;;;;;;87.97;36.10;;;4.60;99.90;;;;;;5020487;28;39658;-74
2022/12/02 07:55:00;;;;;;;88.60;35.07;;;4.50;99.90;;;;;;5011379;28;39261;-74
2022/12/02 07:57:27;;;;;;;91.33;36.53;;;4.50;99.90;;;;;;5009018;28;38279;-74
2022/12/02 07:59:54;;;;;;;87.63;34.07;;;4.50;99.90;;;;;;5016445;28;36091;-74
2022/12/02 08:02:21;;;;;;;92.63;35.77;;;4.50;99.90;;;;;;5005488;28;38840;-74
2022/12/02 08:04:47;;;;;;;85.13;35.47;;;4.50;99.90;;;;;;5005639;28;38856;-75
2022/12/02 08:07:13;;;;;;;90.73;34.97;;;4.40;99.90;;;;;;5000550;28;37043;-74
2022/12/02 08:09:39;;;;;;;90.87;34.43;;;4.40;99.90;;;;;;5009630;28;38347;-74
2022/12/02 08:12:05;;;;;;;81.30;33.13;;;4.30;99.90;;;;;;5002185;28;39635;-75
2022/12/02 08:14:32;;;;;;;84.73;33.67;;;4.30;99.90;;;;;;5007188;28;38382;-74
2022/12/02 08:16:58;;;;;;;78.63;33.07;;;4.30;99.90;;;;;;5012708;28;38325;-74
2022/12/02 08:19:25;;;;;;;86.00;34.13;;;4.40;99.90;;;;;;5007351;28;20050;-74
2022/12/02 08:21:51;;;;;;;86.80;34.87;;;4.30;99.90;;;;;;5012842;28;38502;-75
2022/12/02 08:24:17;;;;;;;83.50;33.67;;;4.30;99.90;;;;;;5015953;28;40043;-75
2022/12/02 08:26:44;;;;;;;81.73;32.83;;;4.20;99.90;;;;;;5014235;28;38086;-74
2022/12/02 08:29:10;;;;;;;74.87;31.10;;;4.20;99.90;;;;;;5016183;28;36770;-73
2022/12/02 08:31:36;;;;;;;73.77;31.57;;;4.20;99.90;;;;;;5014926;28;38405;-74
2022/12/02 08:34:02;;;;;;;79.90;31.97;;;4.10;99.90;;;;;;5012897;28;37332;-74
2022/12/02 08:36:28;;;;;;;73.63;31.77;;;4.20;99.90;;;;;;5024865;28;38782;-74
2022/12/02 08:38:54;;;;;;;73.40;30.07;;;4.20;99.90;;;;;;5016316;28;36776;-74
2022/12/02 08:41:21;;;;;;;73.47;29.87;;;4.20;99.90;;;;;;5010707;28;37829;-75
2022/12/02 08:43:47;;;;;;;78.40;30.57;;;4.20;99.90;;;;;;5002186;28;37594;-74
2022/12/02 08:46:13;;;;;;;66.37;26.73;;;4.20;99.90;;;;;;5001972;28;38855;-75
2022/12/02 08:48:39;;;;;;;64.33;29.00;;;4.20;99.90;;;;;;5009234;28;37334;-75
2022/12/02 08:51:05;;;;;;;66.17;29.27;;;4.20;99.90;;;;;;5001396;28;37465;-74
2022/12/02 08:53:31;;;;;;;59.70;26.77;;;4.30;99.90;;;;;;5007085;28;37557;-74
2022/12/02 08:55:57;;;;;;;61.90;27.33;;;4.30;99.90;;;;;;5006207;28;38467;-75
2022/12/02 08:58:24;;;;;;;59.27;27.03;;;4.30;99.90;;;;;;5007489;28;37569;-74
2022/12/02 09:00:50;;;;;;;55.80;26.00;;;4.30;99.90;;;;;;5000486;28;37953;-75
2022/12/02 09:03:16;;;;;;;49.47;24.83;;;4.40;99.90;;;;;;5002484;28;37118;-74
2022/12/02 09:05:42;;;;;;;47.10;22.47;;;4.40;99.90;;;;;;5011017;28;36654;-74
2022/12/02 09:08:08;;;;;;;46.77;22.97;;;4.40;99.90;;;;;;5009704;28;36893;-75
2022/12/02 09:10:35;;;;;;;44.70;21.77;;;4.50;99.90;;;;;;5031331;28;37639;-74
2022/12/02 09:13:01;;;;;;;43.27;20.87;;;4.40;99.90;;;;;;5019986;28;36907;-74
2022/12/02 09:15:27;;;;;;;43.97;21.23;;;4.50;99.90;;;;;;5022275;28;36674;-74
2022/12/02 09:17:53;;;;;;;45.87;21.70;;;4.50;99.90;;;;;;5019977;28;36390;-74
2022/12/02 09:20:19;;;;;;;46.10;22.57;;;4.50;99.90;;;;;;5011148;28;37588;-74
2022/12/02 09:22:45;;;;;;;48.57;23.13;;;4.40;99.90;;;;;;4997046;28;37509;-75
2022/12/02 09:25:13;;;;;;;45.80;21.87;;;4.50;99.90;;;;;;5027218;28;37963;-75
2022/12/02 09:27:39;;;;;;;41.30;21.27;;;4.50;99.90;;;;;;5016925;28;37675;-74
2022/12/02 09:30:07;;;;;;;43.30;21.97;;;4.50;99.90;;;;;;5018999;28;38969;-75
2022/12/02 09:32:33;;;;;;;41.70;20.27;;;4.50;99.90;;;;;;5011763;28;37408;-75
2022/12/02 09:34:59;;;;;;;44.43;20.80;;;4.60;99.90;;;;;;5013947;28;38667;-74
2022/12/02 09:37:28;;;;;;;41.67;20.93;;;4.60;99.90;;;;;;5016546;28;36985;-75
2022/12/02 09:39:54;;;;;;;40.43;21.53;;;4.50;99.90;;;;;;5016414;28;37803;-75
2022/12/02 09:42:21;;;;;;;42.50;21.27;;;4.50;99.90;;;;;;5016446;28;38310;-74
2022/12/02 09:44:48;;;;;;;41.07;21.80;;;4.60;99.90;;;;;;5013250;28;37295;-75
2022/12/02 09:47:16;;;;;;;42.23;20.83;;;4.60;99.90;;;;;;5019081;28;37785;-75
2022/12/02 09:49:43;;;;;;;42.23;21.23;;;4.70;99.90;;;;;;5018484;28;40036;-75
2022/12/02 09:52:23;;;;;;;45.53;23.17;;;4.80;99.90;;;;;;5008502;28;37500;-75
2022/12/02 09:54:55;;;;;;;44.30;21.47;;;4.70;99.90;;;;;;5027152;28;39670;-76
2022/12/02 09:57:28;;;;;;;40.07;20.50;;;4.70;99.90;;;;;;5020881;28;38298;-75
2022/12/02 09:59:56;;;;;;;39.87;20.47;;;4.70;99.90;;;;;;5011577;28;37732;-75
2022/12/02 10:02:32;;;;;;;40.50;21.77;;;4.80;99.90;;;;;;5014218;28;38346;-74
2022/12/02 10:05:03;;;;;;;42.57;21.70;;;4.70;99.90;;;;;;5030537;28;36928;-75
2022/12/02 10:07:29;;;;;;;42.47;21.27;;;4.80;99.90;;;;;;5012119;28;47216;-75
2022/12/02 10:09:55;;;;;;;39.10;20.10;;;4.80;99.90;;;;;;5015519;28;37710;-76
2022/12/02 10:12:21;;;;;;;38.80;19.30;;;4.80;99.90;;;;;;5009973;28;37431;-75
2022/12/02 10:14:49;;;;;;;36.37;19.30;;;4.80;99.90;;;;;;5020785;28;38918;-74
2022/12/02 10:17:18;;;;;;;32.90;19.13;;;4.90;99.90;;;;;;5028216;28;37043;-75
2022/12/02 10:19:45;;;;;;;34.07;19.63;;;4.80;99.90;;;;;;5014589;28;38899;-75
2022/12/02 10:22:18;;;;;;;37.83;19.93;;;4.90;99.90;;;;;;5017304;28;36862;-75
2022/12/02 10:24:45;;;;;;;35.27;20.03;;;4.90;99.90;;;;;;5046326;28;37760;-74
2022/12/02 10:27:26;;;;;;;33.97;18.33;;;5.00;99.90;;;;;;5011585;28;37615;-74
2022/12/02 10:29:52;;;;;;;34.33;18.70;;;4.90;99.90;;;;;;5022974;28;40314;-75
2022/12/02 10:32:22;;;;;;;31.73;18.60;;;4.90;99.90;;;;;;5022116;28;39534;-75
2022/12/02 10:35:05;;;;;;;31.03;18.60;;;4.90;99.90;;;;;;5023713;28;36920;-75
2022/12/02 10:37:33;;;;;;;35.30;18.10;;;5.00;99.90;;;;;;5024704;28;47110;-75
2022/12/02 10:40:15;;;;;;;34.03;17.87;;;5.10;99.90;;;;;;5019833;28;38857;-74
2022/12/02 10:42:42;;;;;;;34.58;18.85;;;5.20;99.90;;;;;;5009758;28;47232;-75
2022/12/02 10:45:21;;;;;;;30.03;17.10;;;5.20;99.90;;;;;;5021655;28;38618;-75
2022/12/02 10:47:48;;;;;;;31.37;18.33;;;5.20;99.90;;;;;;5009331;28;36366;-75
2022/12/02 10:50:20;;;;;;;31.83;18.93;;;5.30;99.90;;;;;;5003516;28;38547;-75
2022/12/02 10:52:57;;;;;;;31.27;17.73;;;5.20;99.90;;;;;;5007157;28;39705;-75
2022/12/02 10:55:26;;;;;;;28.13;17.30;;;5.30;99.90;;;;;;5019770;28;36880;-75
2022/12/02 10:57:54;;;;;;;37.70;19.50;;;5.40;99.90;;;;;;5012051;28;36317;-74
2022/12/02 11:00:25;;;;;;;32.90;18.37;;;5.40;99.90;;;;;;5009676;28;37735;-74
2022/12/02 11:02:57;;;;;;;31.27;18.33;;;5.30;99.90;;;;;;5000464;28;37153;-76
2022/12/02 11:05:32;;;;;;;33.00;19.30;;;5.20;99.90;;;;;;4992249;28;39332;-76
2022/12/02 11:08:02;;;;;;;36.63;19.40;;;5.10;99.90;;;;;;4995198;28;37124;-75
2022/12/02 11:10:39;;;;;;;36.60;18.83;;;5.00;99.90;;;;;;5004221;28;37294;-76
2022/12/02 11:13:11;;;;;;;34.93;18.23;;;4.90;99.90;;;;;;5005488;28;36475;-75
2022/12/02 11:15:44;;;;;;;30.52;18.35;;;5.00;99.90;;;;;;5004302;28;38885;-76
2022/12/02 11:18:24;;;;;;;30.37;18.00;;;5.00;99.90;;;;;;5004710;28;36683;-78
2022/12/02 11:21:00;;;;;;;29.13;17.30;;;5.10;99.90;;;;;;5005734;28;39336;-75
2022/12/02 11:23:30;;;;;;;31.60;16.87;;;5.30;99.90;;;;;;5008962;28;38039;-74
2022/12/02 11:26:11;;;;;;;30.23;18.23;;;5.40;99.90;;;;;;5024484;28;37193;-74
2022/12/02 11:28:58;;;;;;;30.67;18.33;;;5.50;99.90;;;;;;5003845;28;48326;-75
2022/12/02 11:31:26;;;;;;;34.90;17.50;;;5.50;99.90;;;;;;5012938;28;37478;-75
2022/12/02 11:33:53;;;;;;;32.07;16.20;;;5.40;99.90;;;;;;5020672;28;38733;-75
2022/12/02 11:36:21;;;;;;;24.90;15.00;;;5.40;99.90;;;;;;5009620;28;37021;-75
2022/12/02 11:38:50;;;;;;;28.03;16.40;;;5.20;99.90;;;;;;5026827;28;38131;-75
2022/12/02 11:41:18;;;;;;;28.00;15.17;;;5.00;99.90;;;;;;5020790;28;39783;-75
2022/12/02 11:43:44;;;;;;;28.10;16.20;;;4.90;99.90;;;;;;5014863;28;39452;-75
2022/12/02 11:46:14;;;;;;;30.10;15.83;;;5.00;99.90;;;;;;5013155;28;38008;-77
2022/12/02 11:48:52;;;;;;;29.97;17.43;;;5.10;99.90;;;;;;5014896;28;37593;-75
2022/12/02 11:51:38;;;;;;;35.23;18.43;;;5.20;99.90;;;;;;5023548;28;39393;-75
2022/12/02 11:54:04;;;;;;;31.73;17.47;;;5.20;99.90;;;;;;5018404;28;37355;-74
2022/12/02 11:56:37;;;;;;;31.13;16.53;;;5.20;99.90;;;;;;5020132;28;38478;-74
2022/12/02 11:59:18;;;;;;;30.40;16.58;;;5.30;99.90;;;;;;5007079;28;38148;-75
2022/12/02 12:01:44;;;;;;;33.10;17.83;;;5.30;99.90;;;;;;5008892;28;49191;-75
2022/12/02 12:04:25;;;;;;;31.97;16.77;;;5.30;99.90;;;;;;5009989;28;39961;-75
2022/12/02 12:06:57;;;;;;;30.60;16.50;;;5.50;99.90;;;;;;5006942;28;37988;-74
2022/12/02 12:09:24;;;;;;;30.10;16.25;;;5.60;99.90;;;;;;5005378;28;37558;-74
2022/12/02 12:12:16;;;;;;;31.47;17.27;;;5.70;99.90;;;;;;5004294;28;41301;-74
2022/12/02 12:14:57;;;;;;;30.48;16.73;;;5.60;99.90;;;;;;5001228;28;48472;-74
2022/12/02 12:17:41;;;;;;;35.23;16.80;;;5.50;99.90;;;;;;5003232;28;36786;-74
2022/12/02 12:20:16;;;;;;;29.67;17.60;;;5.40;99.90;;;;;;5000953;28;36238;-74
2022/12/02 12:22:42;;;;;;;38.67;18.67;;;5.20;99.90;;;;;;5008474;28;40429;-73
2022/12/02 12:25:31;;;;;;;38.97;20.10;;;5.10;99.90;;;;;;5005659;28;37294;-74
2022/12/02 12:27:57;;;;;;;46.57;21.77;;;5.00;99.90;;;;;;5019245;28;37155;-74
2022/12/02 12:30:23;;;;;;;48.33;22.63;;;5.00;99.90;;;;;;5004617;28;38171;-74
2022/12/02 12:32:49;;;;;;;41.97;22.70;;;4.80;99.90;;;;;;5006789;28;38660;-74
2022/12/02 12:35:15;;;;;;;42.53;22.20;;;4.70;99.90;;;;;;5006129;28;37803;-75
2022/12/02 12:37:42;;;;;;;43.80;22.47;;;4.60;99.90;;;;;;5005761;28;38361;-76
2022/12/02 12:40:10;;;;;;;44.83;21.83;;;4.60;99.90;;;;;;5006470;28;38707;-74
2022/12/02 12:42:36;;;;;;;44.33;21.73;;;4.70;99.90;;;;;;5008390;28;38905;-75
2022/12/02 12:45:03;;;;;;;48.83;23.10;;;4.60;99.90;;;;;;5006915;28;37054;-75